createdAt,value
2017-10-31T00:00:56.884Z,99.90
2017-10-31T00:03:24.932Z,99.90
2017-10-31T00:05:52.938Z,99.90
2017-10-31T00:08:21.683Z,99.90
2017-10-31T00:10:50.938Z,99.90
2017-10-31T00:13:18.981Z,99.90
2017-10-31T00:15:47.658Z,99.90
2017-10-31T00:18:15.706Z,99.90
2017-10-31T00:20:44.506Z,99.90
2017-10-31T00:23:13.951Z,99.90
2017-10-31T00:25:42.572Z,99.90
2017-10-31T00:28:12.367Z,99.90
2017-10-31T00:30:41.059Z,99.90
2017-10-31T00:33:09.059Z,99.90
2017-10-31T00:35:37.788Z,99.90
2017-10-31T00:38:05.933Z,99.90
2017-10-31T00:40:35.350Z,99.90
2017-10-31T00:43:03.931Z,99.90
2017-10-31T00:45:32.119Z,99.90
2017-10-31T00:48:00.154Z,99.90
2017-10-31T00:50:28.926Z,99.90
2017-10-31T00:52:57.219Z,99.90
2017-10-31T00:55:26.638Z,99.90
2017-10-31T00:57:55.986Z,99.90
2017-10-31T01:00:24.257Z,99.90
2017-10-31T01:02:53.091Z,99.90
2017-10-31T01:05:21.271Z,99.90
2017-10-31T01:07:50.519Z,99.90
2017-10-31T01:10:18.562Z,99.90
2017-10-31T01:12:47.770Z,99.90
2017-10-31T01:15:15.933Z,99.90
2017-10-31T01:17:45.188Z,99.90
2017-10-31T01:20:13.179Z,99.90
2017-10-31T01:22:41.774Z,99.90
2017-10-31T01:25:10.554Z,99.90
2017-10-31T01:27:39.166Z,99.90
2017-10-31T01:30:08.603Z,99.90
2017-10-31T01:32:37.119Z,99.90
2017-10-31T01:35:05.111Z,99.90
2017-10-31T01:37:33.967Z,99.90
2017-10-31T01:40:02.492Z,99.90
2017-10-31T01:42:31.798Z,99.90
2017-10-31T01:45:01.102Z,99.90
2017-10-31T01:47:30.359Z,99.90
2017-10-31T01:49:58.371Z,99.90
2017-10-31T01:52:27.295Z,99.90
2017-10-31T01:54:55.743Z,99.90
2017-10-31T01:57:25.193Z,99.90
2017-10-31T01:59:54.711Z,99.90
2017-10-31T02:02:23.223Z,99.90
2017-10-31T02:04:51.270Z,99.90
2017-10-31T02:07:19.471Z,99.90
2017-10-31T02:09:47.467Z,99.90
2017-10-31T02:12:16.820Z,99.90
2017-10-31T02:14:45.691Z,99.90
2017-10-31T02:17:14.195Z,99.90
2017-10-31T02:19:42.391Z,99.90
2017-10-31T02:22:10.670Z,99.90
2017-10-31T02:24:40.891Z,99.90
2017-10-31T02:27:09.646Z,99.90
2017-10-31T02:29:38.271Z,99.90
2017-10-31T02:32:06.894Z,99.90
2017-10-31T02:34:35.073Z,99.90
2017-10-31T02:37:03.325Z,99.90
2017-10-31T02:39:32.491Z,99.90
2017-10-31T02:42:00.984Z,99.90
2017-10-31T02:44:30.051Z,99.90
2017-10-31T02:46:58.864Z,99.90
2017-10-31T02:49:27.518Z,99.90
2017-10-31T02:51:55.867Z,99.90
2017-10-31T02:54:24.768Z,99.90
2017-10-31T02:56:53.163Z,99.90
2017-10-31T02:59:21.423Z,99.90
2017-10-31T03:01:49.673Z,99.90
2017-10-31T03:04:18.696Z,99.90
2017-10-31T03:06:47.041Z,99.90
2017-10-31T03:09:15.986Z,99.90
2017-10-31T03:11:44.222Z,99.90
2017-10-31T03:14:13.639Z,99.90
2017-10-31T03:16:43.020Z,99.90
2017-10-31T03:19:11.832Z,99.90
2017-10-31T03:21:40.936Z,99.90
2017-10-31T03:24:09.220Z,99.90
2017-10-31T03:26:37.372Z,99.90
2017-10-31T03:29:06.439Z,99.90
2017-10-31T03:31:34.538Z,99.90
2017-10-31T03:34:03.475Z,99.90
2017-10-31T03:36:31.852Z,99.90
2017-10-31T03:39:00.075Z,99.90
2017-10-31T03:41:28.159Z,99.90
2017-10-31T03:43:57.926Z,99.90
2017-10-31T03:46:26.575Z,99.90
2017-10-31T03:48:56.033Z,99.90
2017-10-31T03:51:24.342Z,99.90
2017-10-31T03:53:53.327Z,99.90
2017-10-31T03:56:21.593Z,99.90
2017-10-31T03:58:50.710Z,99.90
2017-10-31T04:01:20.179Z,99.90
2017-10-31T04:03:48.918Z,99.90
2017-10-31T04:06:17.163Z,99.90
2017-10-31T04:08:45.335Z,99.90
2017-10-31T04:11:13.434Z,99.90
2017-10-31T04:13:42.690Z,99.90
2017-10-31T04:16:11.410Z,99.90
2017-10-31T04:18:39.939Z,99.90
2017-10-31T04:21:08.676Z,99.90
2017-10-31T04:23:36.810Z,99.90
2017-10-31T04:26:04.854Z,99.90
2017-10-31T04:28:33.699Z,99.90
2017-10-31T04:31:02.572Z,99.90
2017-10-31T04:33:30.668Z,99.90
2017-10-31T04:35:58.836Z,99.90
2017-10-31T04:38:26.949Z,99.90
2017-10-31T04:40:55.775Z,99.90
2017-10-31T04:43:23.995Z,99.90
2017-10-31T04:45:52.506Z,99.90
2017-10-31T04:48:21.612Z,99.90
2017-10-31T04:50:50.409Z,99.90
2017-10-31T04:53:18.683Z,99.90
2017-10-31T04:55:46.831Z,99.90
2017-10-31T04:58:15.898Z,99.90
2017-10-31T05:00:44.055Z,99.90
2017-10-31T05:03:12.072Z,99.90
2017-10-31T05:05:40.994Z,99.90
2017-10-31T05:08:08.999Z,99.90
2017-10-31T05:10:37.011Z,99.90
2017-10-31T05:13:05.895Z,99.90
2017-10-31T05:15:33.943Z,99.90
2017-10-31T05:18:01.939Z,99.90
2017-10-31T05:20:30.108Z,99.90
2017-10-31T05:22:58.165Z,99.90
2017-10-31T05:25:26.147Z,99.90
2017-10-31T05:27:54.251Z,99.90
2017-10-31T05:30:23.068Z,99.90
2017-10-31T05:32:51.691Z,99.90
2017-10-31T05:35:20.486Z,99.90
2017-10-31T05:37:49.282Z,99.90
2017-10-31T05:40:17.321Z,99.90
2017-10-31T05:42:45.437Z,99.90
2017-10-31T05:45:14.159Z,99.90
2017-10-31T05:47:44.227Z,99.90
2017-10-31T05:50:14.984Z,99.90
2017-10-31T05:52:46.347Z,99.90
2017-10-31T05:55:16.517Z,99.90
2017-10-31T05:57:44.532Z,99.90
2017-10-31T06:00:13.323Z,99.90
2017-10-31T06:02:42.335Z,99.90
2017-10-31T06:05:10.383Z,99.90
2017-10-31T06:07:39.365Z,99.90
2017-10-31T06:10:07.586Z,99.90
2017-10-31T06:12:35.686Z,99.90
2017-10-31T06:15:03.736Z,99.90
2017-10-31T06:17:32.136Z,99.90
2017-10-31T06:20:00.255Z,99.90
2017-10-31T06:22:34.830Z,99.90
2017-10-31T06:25:08.740Z,99.90
2017-10-31T06:27:43.159Z,99.90
2017-10-31T06:30:16.891Z,99.90
2017-10-31T06:32:45.006Z,99.90
2017-10-31T06:35:13.898Z,99.90
2017-10-31T06:37:42.827Z,99.90
2017-10-31T06:40:10.998Z,99.90
2017-10-31T06:42:39.184Z,99.90
2017-10-31T06:45:07.190Z,99.90
2017-10-31T06:47:36.254Z,99.90
2017-10-31T06:50:05.758Z,99.90
2017-10-31T06:52:33.930Z,99.90
2017-10-31T06:55:02.202Z,99.90
2017-10-31T06:57:30.692Z,99.90
2017-10-31T06:59:58.789Z,99.90
2017-10-31T07:02:26.992Z,99.90
2017-10-31T07:04:56.561Z,99.90
2017-10-31T07:07:25.315Z,99.90
2017-10-31T07:09:54.262Z,99.90
2017-10-31T07:12:22.322Z,99.90
2017-10-31T07:14:50.327Z,99.90
2017-10-31T07:17:19.850Z,99.90
2017-10-31T07:19:48.503Z,99.90
2017-10-31T07:22:16.789Z,99.90
2017-10-31T07:24:46.164Z,99.90
2017-10-31T07:27:14.237Z,99.90
2017-10-31T07:29:42.302Z,99.90
2017-10-31T07:32:10.521Z,99.90
2017-10-31T07:34:39.341Z,98.90
2017-10-31T07:37:07.380Z,98.90
2017-10-31T07:39:36.798Z,98.90
2017-10-31T07:42:05.540Z,99.30
2017-10-31T07:44:33.989Z,99.30
2017-10-31T07:47:02.150Z,99.60
2017-10-31T07:49:30.182Z,99.90
2017-10-31T07:51:58.199Z,99.90
2017-10-31T07:54:26.334Z,99.90
2017-10-31T07:56:54.331Z,99.60
2017-10-31T07:59:23.110Z,99.90
2017-10-31T08:01:52.015Z,99.90
2017-10-31T08:04:21.215Z,99.90
2017-10-31T08:06:50.619Z,99.90
2017-10-31T08:09:20.146Z,99.90
2017-10-31T08:11:48.222Z,99.90
2017-10-31T08:14:16.235Z,99.90
2017-10-31T08:16:44.408Z,99.90
2017-10-31T08:19:12.407Z,99.90
2017-10-31T08:21:41.475Z,99.80
2017-10-31T08:24:10.200Z,99.80
2017-10-31T08:26:38.998Z,99.50
2017-10-31T08:29:07.027Z,99.50
2017-10-31T08:31:35.143Z,99.10
2017-10-31T08:34:03.184Z,98.60
2017-10-31T08:36:31.254Z,97.80
2017-10-31T08:38:59.430Z,97.70
2017-10-31T08:41:27.490Z,97.30
2017-10-31T08:43:55.622Z,97.10
2017-10-31T08:46:23.736Z,97.50
2017-10-31T08:48:51.791Z,97.00
2017-10-31T08:51:19.866Z,97.30
2017-10-31T08:53:48.059Z,97.50
2017-10-31T08:56:16.064Z,97.50
2017-10-31T08:58:44.812Z,99.90
2017-10-31T09:01:12.971Z,99.90
2017-10-31T09:03:40.959Z,99.90
2017-10-31T09:06:09.014Z,99.90
2017-10-31T09:08:37.351Z,99.90
2017-10-31T09:11:06.112Z,99.90
2017-10-31T09:13:34.107Z,99.90
2017-10-31T09:16:03.049Z,99.90
2017-10-31T09:18:31.095Z,99.90
2017-10-31T09:20:59.096Z,99.90
2017-10-31T09:23:27.807Z,99.90
2017-10-31T09:25:56.379Z,99.90
2017-10-31T09:28:24.420Z,99.90
2017-10-31T09:30:53.182Z,99.90
2017-10-31T09:33:22.094Z,99.90
2017-10-31T09:35:50.091Z,99.90
2017-10-31T09:38:18.948Z,99.90
2017-10-31T09:40:47.515Z,99.90
2017-10-31T09:43:16.892Z,99.90
2017-10-31T09:45:45.050Z,99.90
2017-10-31T09:48:13.121Z,99.90
2017-10-31T09:50:41.143Z,99.90
2017-10-31T09:53:10.711Z,99.90
2017-10-31T09:55:39.282Z,99.90
2017-10-31T09:58:07.279Z,99.90
2017-10-31T10:00:35.487Z,99.90
2017-10-31T10:03:04.306Z,99.90
2017-10-31T10:05:32.303Z,99.90
2017-10-31T10:08:00.462Z,99.90
2017-10-31T10:10:28.650Z,99.90
2017-10-31T10:12:56.691Z,99.90
2017-10-31T10:15:24.890Z,99.90
2017-10-31T10:17:52.899Z,99.90
2017-10-31T10:20:21.643Z,99.90
2017-10-31T10:22:49.783Z,99.90
2017-10-31T10:25:18.528Z,99.90
2017-10-31T10:27:47.094Z,99.90
2017-10-31T10:30:15.652Z,99.90
2017-10-31T10:32:43.714Z,99.90
2017-10-31T10:35:11.763Z,99.90
2017-10-31T10:37:40.057Z,99.90
2017-10-31T10:40:09.505Z,99.90
2017-10-31T10:42:39.046Z,99.90
2017-10-31T10:45:09.478Z,99.90
2017-10-31T10:47:37.675Z,99.90
2017-10-31T10:50:06.420Z,99.90
2017-10-31T10:52:35.026Z,99.90
2017-10-31T10:55:03.680Z,99.90
2017-10-31T10:57:31.724Z,99.90
2017-10-31T11:00:01.167Z,99.90
2017-10-31T11:02:29.502Z,99.90
2017-10-31T11:04:57.589Z,99.90
2017-10-31T11:07:25.775Z,99.90
2017-10-31T11:09:54.326Z,99.90
2017-10-31T11:12:23.844Z,99.90
2017-10-31T11:14:52.052Z,99.90
2017-10-31T11:17:20.064Z,99.90
2017-10-31T11:19:48.878Z,99.90
2017-10-31T11:22:17.091Z,99.90
2017-10-31T11:24:45.767Z,99.90
2017-10-31T11:27:14.222Z,99.90
2017-10-31T11:29:43.007Z,99.90
2017-10-31T11:32:11.083Z,99.90
2017-10-31T11:34:40.558Z,99.90
2017-10-31T11:37:08.748Z,99.90
2017-10-31T11:39:37.898Z,99.90
2017-10-31T11:42:05.943Z,99.90
2017-10-31T11:44:34.202Z,99.90
2017-10-31T11:47:03.857Z,99.90
2017-10-31T11:49:31.910Z,99.90
2017-10-31T11:52:00.656Z,99.90
2017-10-31T11:54:29.944Z,99.90
2017-10-31T11:56:58.591Z,99.90
2017-10-31T11:59:26.712Z,99.90
2017-10-31T12:01:55.342Z,99.90
2017-10-31T12:04:23.387Z,99.90
2017-10-31T12:06:52.300Z,99.90
2017-10-31T12:09:20.296Z,99.90
2017-10-31T12:11:48.851Z,99.90
2017-10-31T12:14:18.171Z,99.90
2017-10-31T12:16:46.842Z,99.90
2017-10-31T12:19:14.926Z,99.90
2017-10-31T12:21:43.035Z,99.90
2017-10-31T12:24:11.055Z,99.90
2017-10-31T12:26:39.634Z,99.90
2017-10-31T12:29:09.008Z,99.90
2017-10-31T12:31:37.592Z,99.90
2017-10-31T12:34:05.649Z,99.90
2017-10-31T12:36:33.854Z,99.90
2017-10-31T12:39:01.891Z,99.90
2017-10-31T12:41:30.292Z,99.90
2017-10-31T12:43:59.092Z,99.90
2017-10-31T12:46:27.501Z,99.90
2017-10-31T12:48:55.979Z,99.90
2017-10-31T12:51:24.911Z,99.90
2017-10-31T12:53:52.920Z,99.90
2017-10-31T12:56:20.956Z,99.90
2017-10-31T12:58:49.182Z,99.90
2017-10-31T13:01:18.612Z,99.90
2017-10-31T13:03:48.133Z,99.90
2017-10-31T13:06:16.452Z,99.90
2017-10-31T13:08:44.550Z,99.90
2017-10-31T13:11:13.980Z,99.90
2017-10-31T13:13:42.531Z,99.90
2017-10-31T13:16:11.891Z,99.90
2017-10-31T13:18:40.594Z,99.90
2017-10-31T13:21:08.734Z,99.90
2017-10-31T13:23:36.796Z,99.90
2017-10-31T13:26:05.996Z,99.90
2017-10-31T13:28:35.386Z,99.90
2017-10-31T13:31:05.006Z,99.90
2017-10-31T13:33:34.198Z,99.90
2017-10-31T13:36:03.702Z,99.90
2017-10-31T13:38:33.141Z,99.90
2017-10-31T13:41:01.815Z,99.90
2017-10-31T13:43:31.059Z,99.90
2017-10-31T13:46:00.373Z,99.90
2017-10-31T13:48:29.642Z,99.90
2017-10-31T13:50:58.811Z,99.90
2017-10-31T13:53:27.425Z,99.90
2017-10-31T13:55:55.456Z,99.90
2017-10-31T13:58:24.957Z,99.90
2017-10-31T14:00:53.763Z,99.90
2017-10-31T14:03:22.854Z,99.90
2017-10-31T14:05:52.315Z,99.90
2017-10-31T14:08:20.954Z,99.90
2017-10-31T14:10:49.587Z,99.90
2017-10-31T14:13:19.139Z,99.90
2017-10-31T14:15:48.531Z,99.90
2017-10-31T14:18:18.274Z,99.90
2017-10-31T14:20:47.082Z,99.90
2017-10-31T14:23:15.076Z,99.90
2017-10-31T14:25:43.366Z,99.90
2017-10-31T14:28:12.093Z,99.90
2017-10-31T14:30:40.795Z,99.90
2017-10-31T14:33:09.434Z,99.90
2017-10-31T14:35:38.806Z,99.90
2017-10-31T14:38:06.902Z,99.90
2017-10-31T14:40:35.099Z,99.90
2017-10-31T14:43:03.864Z,99.90
2017-10-31T14:45:34.113Z,99.90
2017-10-31T14:48:03.602Z,99.90
2017-10-31T14:50:33.150Z,99.90
2017-10-31T14:53:01.202Z,99.90
2017-10-31T14:55:30.083Z,99.90
2017-10-31T14:57:59.359Z,99.90
2017-10-31T15:00:28.107Z,99.90
2017-10-31T15:02:56.961Z,99.90
2017-10-31T15:05:26.159Z,99.90
2017-10-31T15:07:54.954Z,99.90
2017-10-31T15:10:23.819Z,99.90
2017-10-31T15:12:51.816Z,99.90
2017-10-31T15:15:21.088Z,99.90
2017-10-31T15:17:49.623Z,99.90
2017-10-31T15:20:18.470Z,99.90
2017-10-31T15:22:46.930Z,99.90
2017-10-31T15:25:15.101Z,99.90
2017-10-31T15:27:43.123Z,99.90
2017-10-31T15:30:12.242Z,99.90
2017-10-31T15:32:40.910Z,99.90
2017-10-31T15:35:10.205Z,99.90
2017-10-31T15:37:38.934Z,99.90
2017-10-31T15:40:07.099Z,99.90
2017-10-31T15:42:35.144Z,99.90
2017-10-31T15:45:04.346Z,99.90
2017-10-31T15:47:33.045Z,99.90
2017-10-31T15:50:01.040Z,99.90
2017-10-31T15:52:29.563Z,99.90
2017-10-31T15:54:57.688Z,99.90
2017-10-31T15:57:25.703Z,99.90
2017-10-31T15:59:53.719Z,99.90
2017-10-31T16:02:22.383Z,99.90
2017-10-31T16:04:51.860Z,99.90
2017-10-31T16:07:20.299Z,99.90
2017-10-31T16:09:48.488Z,99.90
2017-10-31T16:12:16.500Z,99.90
2017-10-31T16:14:45.138Z,99.90
2017-10-31T16:17:13.959Z,99.90
2017-10-31T16:19:42.069Z,99.90
2017-10-31T16:22:10.983Z,99.90
2017-10-31T16:24:39.132Z,99.90
2017-10-31T16:27:07.994Z,99.90
2017-10-31T16:29:36.589Z,99.90
2017-10-31T16:32:04.712Z,99.90
2017-10-31T16:34:33.222Z,99.90
2017-10-31T16:37:01.895Z,99.90
2017-10-31T16:39:30.593Z,99.90
2017-10-31T16:41:58.650Z,99.90
2017-10-31T16:44:26.702Z,99.90
2017-10-31T16:46:54.804Z,99.90
2017-10-31T16:49:23.444Z,99.90
2017-10-31T16:51:52.241Z,99.90
2017-10-31T16:54:21.745Z,99.90
2017-10-31T16:56:50.639Z,99.90
2017-10-31T16:59:19.435Z,99.90
2017-10-31T17:01:49.051Z,99.90
2017-10-31T17:04:17.080Z,99.90
2017-10-31T17:06:45.083Z,99.90
2017-10-31T17:09:14.638Z,99.90
2017-10-31T17:11:43.259Z,99.90
2017-10-31T17:14:11.354Z,99.90
2017-10-31T17:16:39.519Z,99.90
2017-10-31T17:19:08.888Z,99.90
2017-10-31T17:21:37.648Z,99.90
2017-10-31T17:24:05.986Z,99.90
2017-10-31T17:26:35.045Z,99.90
2017-10-31T17:29:03.103Z,99.90
2017-10-31T17:31:31.294Z,99.90
2017-10-31T17:33:59.859Z,99.90
2017-10-31T17:36:27.902Z,99.90
2017-10-31T17:38:57.299Z,99.90
2017-10-31T17:41:26.112Z,99.90
2017-10-31T17:43:54.175Z,99.90
2017-10-31T17:46:22.412Z,99.90
2017-10-31T17:48:51.159Z,99.90
2017-10-31T17:51:19.291Z,99.90
2017-10-31T17:53:48.996Z,99.90
2017-10-31T17:56:17.444Z,99.90
2017-10-31T17:58:45.445Z,99.90
2017-10-31T18:01:13.708Z,99.90
2017-10-31T18:03:42.252Z,99.90
2017-10-31T18:06:10.837Z,99.90
2017-10-31T18:08:39.590Z,99.90
2017-10-31T18:11:08.946Z,99.90
2017-10-31T18:13:37.051Z,99.90
2017-10-31T18:16:05.191Z,99.90
2017-10-31T18:18:33.686Z,99.90
2017-10-31T18:21:01.726Z,99.90
2017-10-31T18:23:29.845Z,99.90
2017-10-31T18:25:58.861Z,99.90
2017-10-31T18:28:26.931Z,99.90
2017-10-31T18:30:55.152Z,99.90
2017-10-31T18:33:23.208Z,99.90
2017-10-31T18:35:52.444Z,99.90
2017-10-31T18:38:20.622Z,99.90
2017-10-31T18:40:49.050Z,99.90
2017-10-31T18:43:17.834Z,99.90
2017-10-31T18:45:46.758Z,99.90
2017-10-31T18:48:14.842Z,99.90
2017-10-31T18:50:43.296Z,99.90
2017-10-31T18:53:11.452Z,99.90
2017-10-31T18:55:41.382Z,99.90
2017-10-31T18:58:10.174Z,99.90
2017-10-31T19:00:39.025Z,99.90
2017-10-31T19:03:07.849Z,99.90
2017-10-31T19:05:36.640Z,99.90
2017-10-31T19:08:05.555Z,99.90
2017-10-31T19:10:33.550Z,99.90
2017-10-31T19:13:02.382Z,99.90
2017-10-31T19:15:30.555Z,99.90
2017-10-31T19:17:59.327Z,99.90
2017-10-31T19:20:27.363Z,99.90
2017-10-31T19:22:55.479Z,99.90
2017-10-31T19:25:23.468Z,99.90
2017-10-31T19:27:52.352Z,99.90
2017-10-31T19:30:20.531Z,99.90
2017-10-31T19:32:48.557Z,99.90
2017-10-31T19:35:17.150Z,99.90
2017-10-31T19:37:45.739Z,99.90
2017-10-31T19:40:14.108Z,99.90
2017-10-31T19:42:43.489Z,99.90
2017-10-31T19:45:11.603Z,99.90
2017-10-31T19:47:39.608Z,99.90
2017-10-31T19:50:08.399Z,99.90
2017-10-31T19:52:37.656Z,99.90
2017-10-31T19:55:06.188Z,99.90
2017-10-31T19:57:35.367Z,99.90
2017-10-31T20:00:03.525Z,99.90
2017-10-31T20:02:31.574Z,99.90
2017-10-31T20:04:59.616Z,99.90
2017-10-31T20:07:28.459Z,99.90
2017-10-31T20:09:57.210Z,99.90
2017-10-31T20:12:25.959Z,99.90
2017-10-31T20:14:54.586Z,99.90
2017-10-31T20:17:22.623Z,99.90
2017-10-31T20:19:50.616Z,99.90
2017-10-31T20:22:19.852Z,99.90
2017-10-31T20:24:48.395Z,99.90
2017-10-31T20:27:17.674Z,99.90
2017-10-31T20:29:46.591Z,99.90
2017-10-31T20:32:15.802Z,99.90
2017-10-31T20:34:43.839Z,99.90
2017-10-31T20:37:12.484Z,99.90
2017-10-31T20:39:40.531Z,99.90
2017-10-31T20:42:09.002Z,99.90
2017-10-31T20:44:38.376Z,99.90
2017-10-31T20:47:06.371Z,99.90
2017-10-31T20:49:35.150Z,99.90
2017-10-31T20:52:03.323Z,99.90
2017-10-31T20:54:32.553Z,99.90
2017-10-31T20:57:01.146Z,99.90
2017-10-31T20:59:29.278Z,99.90
2017-10-31T21:01:57.284Z,99.90
2017-10-31T21:04:25.288Z,99.90
2017-10-31T21:06:53.994Z,99.90
2017-10-31T21:09:22.852Z,99.90
2017-10-31T21:11:51.301Z,99.90
2017-10-31T21:14:20.929Z,99.90
2017-10-31T21:16:48.928Z,99.90
2017-10-31T21:19:16.967Z,99.90
2017-10-31T21:21:45.095Z,99.90
2017-10-31T21:24:13.862Z,99.90
2017-10-31T21:26:42.273Z,99.90
2017-10-31T21:29:10.395Z,99.90
2017-10-31T21:31:39.028Z,99.90
2017-10-31T21:34:07.043Z,99.90
2017-10-31T21:36:35.160Z,99.90
2017-10-31T21:39:03.983Z,99.90
2017-10-31T21:41:33.263Z,99.90
2017-10-31T21:44:01.971Z,99.90
2017-10-31T21:46:31.286Z,99.90
2017-10-31T21:49:00.451Z,99.90
2017-10-31T21:51:28.590Z,99.90
2017-10-31T21:53:57.153Z,99.90
2017-10-31T21:56:25.643Z,99.90
2017-10-31T21:58:54.079Z,99.90
2017-10-31T22:01:22.660Z,99.90
2017-10-31T22:03:50.655Z,99.90
2017-10-31T22:06:19.499Z,99.90
2017-10-31T22:08:48.127Z,99.90
2017-10-31T22:11:17.407Z,99.90
2017-10-31T22:13:46.088Z,99.90
2017-10-31T22:16:14.751Z,99.90
2017-10-31T22:18:42.743Z,99.90
2017-10-31T22:21:10.849Z,99.90
2017-10-31T22:23:40.058Z,99.90
2017-10-31T22:26:08.808Z,99.90
2017-10-31T22:28:37.707Z,99.90
2017-10-31T22:31:06.346Z,99.90
2017-10-31T22:33:34.619Z,99.90
2017-10-31T22:36:02.747Z,99.90
2017-10-31T22:38:30.743Z,99.90
2017-10-31T22:40:59.998Z,99.90
2017-10-31T22:43:28.167Z,99.90
2017-10-31T22:45:57.044Z,99.90
2017-10-31T22:48:25.542Z,99.90
2017-10-31T22:50:53.663Z,99.90
2017-10-31T22:53:22.392Z,99.90
2017-10-31T22:55:50.886Z,99.90
2017-10-31T22:58:19.704Z,99.90
2017-10-31T23:00:48.750Z,99.90
2017-10-31T23:03:17.462Z,99.90
2017-10-31T23:05:45.618Z,99.90
2017-10-31T23:08:13.628Z,99.90
2017-10-31T23:10:41.667Z,99.90
2017-10-31T23:13:10.350Z,99.90
2017-10-31T23:15:38.918Z,99.90
2017-10-31T23:18:08.175Z,99.90
2017-10-31T23:20:36.334Z,99.90
2017-10-31T23:23:04.323Z,99.90
2017-10-31T23:25:32.377Z,99.90
2017-10-31T23:28:01.063Z,99.90
2017-10-31T23:30:29.114Z,99.90
2017-10-31T23:32:57.678Z,99.90
2017-10-31T23:35:26.711Z,99.90
2017-10-31T23:37:54.692Z,99.90
2017-10-31T23:40:22.697Z,99.90
2017-10-31T23:42:52.122Z,99.90
2017-10-31T23:45:20.657Z,99.90
2017-10-31T23:47:49.429Z,99.90
2017-10-31T23:50:17.606Z,99.90
2017-10-31T23:52:45.568Z,99.90
2017-10-31T23:55:13.605Z,99.90
2017-10-31T23:57:43.076Z,99.90
